You are listening to:
KJFK Tower - New York, New York, United States

KJFK 270551Z 27011KT 10SM FEW090 18/09 A2999 RMK AO2 SLP155 T01830094 10206 20183 53006 $

If stream doesn't start automatically press the play button
If stream stops then reload player then press play